Strona główna
METAR-TAF:

METAR-TAF

Lotnisko :

Port lotniczy Xi’an-Xianyang

Xi'an, Chiny

Szerokość geograficzna: 34-26N, Długość geograficzna: 108-45E, wysokość: 479 m

Aktualna obserwacja pogody

Raport powstał 56 minut temu, godzina 22:00 UTC
Wiatr 14 kt od północny wschód
Temperatura 12°C
Wilgotność 58%
Ciśnienie 1021 hPa
Widzialność: 6000 m

METAR: ZLXY 182200Z 05007MPS 6000 NSC 12/04 Q1021 NOSIG

czas: 06:56 (22:56 UTC)

Prognoza

Raport powstał 7 godziny i 44 minut temu, godzina 15:12 UTC
Prognoza ważna od 18 godzina 18 UTC do 19 godzina 18 UTC
Wiatr 12 kt od wschodnio-północny wschód w porywach dochodzący do 21 kt
Widzialność: 3000 m
zmętnienie

TAF: ZLXY 181512Z 1818/1918 06006G11MPS 3000 HZ NSC TX19/1907Z TN12/1821Z

Obserwacja i prognoza pogody dla ponad 4000 lotnisk (raport METAR i TAF).

Dostępne stacje oznaczono żółtymi i czerwonymi punktami na mapie.

Najedź kursorem aby zobaczyć nazwę stacji.

Kliknij aby zobaczyć obserwacje i prognozy pogody.

Aby zmienić mapę: kliknij na zielony przycisk z czarnym krzyżykiem, aby powiększyć; na zielony przycisk z myślnikiem, aby pomniejszyć; na zielone strzałki, aby przejść do map sąsiednich.


METAR-TAF: